Oldcastle, Ireland
Current Conditions -  °F | °C
As of 12:00 AM on Thursday 23 Oct 2014 (Local Time) from EIDW Reporting Station
Broken Clouds Broken Clouds  
Wind Chill: 54°   Ceiling: 2700
Heat Index: 54°   Visibility: 6mi
Dew Point: 46°   Wind: 14mph
Humidity: 77%   Direction: 230°SW
Pressure: 30.03"   Gusts: NA
Location:  53.77°N, 7.16°W
Report Text: EIDW 222300Z 23012KT 9999 FEW022 BKN027 12/08 Q1017 NOSIG
Loading
Personal Weather Stations






























Interactive Weather Map
Tropical Storm Tracking
New forecast layout! Learn more

10-Day Weather Forecast

Advertisements
Track Severe Weather on mobile